< < Back
Terminal Aerodrome Forecast


Current Version              Previous Versions:   1  2  3  4  5  6  7  8  9  

Terminal Aerodrome Forecast

505
FTUS44 KMRX 281720
TAFCHA
TAF
KCHA 281720Z 2818/2918 02008KT P6SM SCT050 BKN250
     FM290000 36004KT P6SM SCT250
     FM291400 33005KT P6SM SCT150=



Latest METAR

404
SAUS80 KWBC 291200 RRC
MTRCHA
METAR KCHA 291153Z 34003KT 10SM FEW150 SCT250 24/19 A3002 RMK AO2 SLP155
T02390189 10239 20206 51013


USA.gov is the U.S. government's official web portal to all federal, state and local government web resources and services.